PWSweather.com
Personal Weather Stations
Station Observations
KNVELKO7
Elko, NV 89801

Elko, NV 89801

Lat: 40.963233, Lon: -115.592836

Elevation: 5230

Station Type: WS-2812

Latest ConditionsUpdated 2:47:41 AM PDT Friday, Jul 1, 2016
Currently Today's Max Today's Min Today's Average
Temperature 57.1°F13.9°C 66.4°F19.1°C 57.1°F13.9°C 61.7°F16.5°C
Dew Point 41.5°F5.3°C 46.2°F7.9°C 41.0°F5.0°C 43.6°F6.4°C
Winds 0.8 mph NE1.3 kmh NE 6.6 mph NE10.6 kmh NE - 2.8 mph 4.5 kmh
Wind Gusts 3.4 mph5.5 kmh 11.4 mph18.3 kmh - -
Humidity 56% 56% 47% 51%
Pressure 30.11 in1019.6 mb 30.13 in1020.3 mb 30.10 in1019.3 mb -
Hour Temp Dew Point Humidity Winds Wind Gusts Pressure Precip Precip Rate Daily Precip Total
02:47 AM 57.1°F13.9°C 41.5°F5.3°C 56% 0.8 mph NE1.3 kmh NE 3.4 mph5.5 kmh 30.11 in1019.6 mb 0.00 in0.0 mm 0.00 in0.0 mm 0.00 in0.0 mm
02:42 AM 57.2°F14.0°C 41.7°F5.4°C 56% 2.0 mph ESE3.2 kmh ESE 3.4 mph5.5 kmh 30.11 in1019.6 mb 0.00 in0.0 mm 0.00 in0.0 mm 0.00 in0.0 mm
02:37 AM 57.2°F14.0°C 41.7°F5.4°C 56% 1.5 mph SSE2.4 kmh SSE 2.2 mph3.5 kmh 30.11 in1019.6 mb 0.00 in0.0 mm 0.00 in0.0 mm 0.00 in0.0 mm
02:32 AM 57.6°F14.2°C 41.0°F5.0°C 54% 1.5 mph SE2.4 kmh SE 3.1 mph5.0 kmh 30.11 in1019.6 mb 0.00 in0.0 mm 0.00 in0.0 mm 0.00 in0.0 mm
02:27 AM 58.0°F14.4°C 41.9°F5.5°C 55% 2.6 mph SSE4.2 kmh SSE 3.1 mph5.0 kmh 30.10 in1019.3 mb 0.00 in0.0 mm 0.00 in0.0 mm 0.00 in0.0 mm
02:22 AM 58.1°F14.5°C 42.0°F5.6°C 55% 1.5 mph SSW2.4 kmh SSW 1.8 mph2.9 kmh 30.11 in1019.6 mb 0.00 in0.0 mm 0.00 in0.0 mm 0.00 in0.0 mm
02:17 AM 58.5°F14.7°C 41.9°F5.5°C 54% 1.3 mph SSW2.1 kmh SSW 1.8 mph2.9 kmh 30.10 in1019.3 mb 0.00 in0.0 mm 0.00 in0.0 mm 0.00 in0.0 mm
02:12 AM 58.9°F14.9°C 42.2°F5.7°C 54% 0.6 mph W1.0 kmh W 2.0 mph3.2 kmh 30.10 in1019.3 mb 0.00 in0.0 mm 0.00 in0.0 mm 0.00 in0.0 mm
02:07 AM 59.2°F15.1°C 42.6°F5.9°C 54% 1.6 mph W2.6 kmh W 2.9 mph4.7 kmh 30.10 in1019.3 mb 0.00 in0.0 mm 0.00 in0.0 mm 0.00 in0.0 mm
02:03 AM 59.4°F15.2°C 42.8°F6.0°C 54% 2.3 mph WSW3.7 kmh WSW 3.6 mph5.8 kmh 30.10 in1019.3 mb 0.00 in0.0 mm 0.00 in0.0 mm 0.00 in0.0 mm
01:57 AM 59.6°F15.3°C 42.8°F6.0°C 54% 2.6 mph NW4.2 kmh NW 5.1 mph8.2 kmh 30.10 in1019.3 mb 0.00 in0.0 mm 0.00 in0.0 mm 0.00 in0.0 mm
01:52 AM 59.8°F15.4°C 43.0°F6.1°C 54% 4.3 mph 6.9 kmh 6.3 mph10.1 kmh 30.10 in1019.3 mb 0.00 in0.0 mm 0.00 in0.0 mm 0.00 in0.0 mm
01:47 AM 60.1°F15.6°C 42.9°F6.1°C 53% 5.3 mph NE8.5 kmh NE 6.3 mph10.1 kmh 30.10 in1019.3 mb 0.00 in0.0 mm 0.00 in0.0 mm 0.00 in0.0 mm
01:42 AM 60.8°F16.0°C 42.6°F5.9°C 51% 4.3 mph NE6.9 kmh NE 5.4 mph8.7 kmh 30.11 in1019.6 mb 0.00 in0.0 mm 0.00 in0.0 mm 0.00 in0.0 mm
01:37 AM 61.2°F16.2°C 42.9°F6.1°C 51% 4.9 mph 7.9 kmh 5.4 mph8.7 kmh 30.10 in1019.3 mb 0.00 in0.0 mm 0.00 in0.0 mm 0.00 in0.0 mm
01:32 AM 61.6°F16.4°C 43.3°F6.3°C 51% 2.7 mph 4.3 kmh 3.1 mph5.0 kmh 30.11 in1019.6 mb 0.00 in0.0 mm 0.00 in0.0 mm 0.00 in0.0 mm
01:27 AM 61.9°F16.6°C 43.1°F6.2°C 50% 1.3 mph NNE2.1 kmh NNE 2.2 mph3.5 kmh 30.11 in1019.6 mb 0.00 in0.0 mm 0.00 in0.0 mm 0.00 in0.0 mm
01:22 AM 62.3°F16.8°C 43.9°F6.6°C 51% 0.9 mph NE1.4 kmh NE 4.3 mph6.9 kmh 30.11 in1019.6 mb 0.00 in0.0 mm 0.00 in0.0 mm 0.00 in0.0 mm
01:17 AM 62.6°F17.0°C 44.2°F6.8°C 51% 1.8 mph WNW2.9 kmh WNW 4.3 mph6.9 kmh 30.11 in1019.6 mb 0.00 in0.0 mm 0.00 in0.0 mm 0.00 in0.0 mm
01:12 AM 62.6°F17.0°C 43.7°F6.5°C 50% 1.5 mph NW2.4 kmh NW 4.7 mph7.6 kmh 30.11 in1019.6 mb 0.00 in0.0 mm 0.00 in0.0 mm 0.00 in0.0 mm
01:07 AM 62.8°F17.1°C 43.9°F6.6°C 50% 3.8 mph 6.1 kmh 4.7 mph7.6 kmh 30.11 in1019.6 mb 0.00 in0.0 mm 0.00 in0.0 mm 0.00 in0.0 mm
01:02 AM 63.0°F17.2°C 44.1°F6.7°C 50% Calm Calm 3.8 mph6.1 kmh 30.11 in1019.6 mb 0.00 in0.0 mm 0.00 in0.0 mm 0.00 in0.0 mm
12:57 AM 63.2°F17.3°C 44.2°F6.8°C 50% 1.8 mph S2.9 kmh S 4.3 mph6.9 kmh 30.11 in1019.6 mb 0.00 in0.0 mm 0.00 in0.0 mm 0.00 in0.0 mm
12:52 AM 63.5°F17.5°C 44.6°F7.0°C 50% 4.1 mph SW6.6 kmh SW 4.3 mph6.9 kmh 30.12 in1020.0 mb 0.00 in0.0 mm 0.00 in0.0 mm 0.00 in0.0 mm
12:47 AM 63.7°F17.6°C 44.7°F7.1°C 50% 2.8 mph SW4.5 kmh SW 5.4 mph8.7 kmh 30.12 in1020.0 mb 0.00 in0.0 mm 0.00 in0.0 mm 0.00 in0.0 mm
12:42 AM 63.7°F17.6°C 44.1°F6.7°C 49% 4.7 mph S7.6 kmh S 5.4 mph8.7 kmh 30.12 in1020.0 mb 0.00 in0.0 mm 0.00 in0.0 mm 0.00 in0.0 mm
12:37 AM 64.3°F17.9°C 44.7°F7.1°C 49% 3.2 mph S5.1 kmh S 3.4 mph5.5 kmh 30.12 in1020.0 mb 0.00 in0.0 mm 0.00 in0.0 mm 0.00 in0.0 mm
12:32 AM 64.8°F18.2°C 44.6°F7.0°C 48% 1.7 mph ESE2.7 kmh ESE 4.5 mph7.2 kmh 30.12 in1020.0 mb 0.00 in0.0 mm 0.00 in0.0 mm 0.00 in0.0 mm
12:27 AM 65.3°F18.5°C 45.1°F7.3°C 48% 3.2 mph ESE5.1 kmh ESE 5.1 mph8.2 kmh 30.12 in1020.0 mb 0.00 in0.0 mm 0.00 in0.0 mm 0.00 in0.0 mm
12:22 AM 65.9°F18.8°C 45.0°F7.2°C 47% 3.8 mph ESE6.1 kmh ESE 6.0 mph9.7 kmh 30.12 in1020.0 mb 0.00 in0.0 mm 0.00 in0.0 mm 0.00 in0.0 mm
12:17 AM 66.2°F19.0°C 46.0°F7.8°C 48% 5.3 mph ESE8.5 kmh ESE 8.1 mph13.0 kmh 30.13 in1020.3 mb 0.00 in0.0 mm 0.00 in0.0 mm 0.00 in0.0 mm
12:12 AM 66.2°F19.0°C 46.0°F7.8°C 48% 6.6 mph NE10.6 kmh NE 8.1 mph13.0 kmh 30.13 in1020.3 mb 0.00 in0.0 mm 0.00 in0.0 mm 0.00 in0.0 mm
12:07 AM 66.4°F19.1°C 46.2°F7.9°C 48% 3.1 mph NE5.0 kmh NE 9.4 mph15.1 kmh 30.12 in1020.0 mb 0.00 in0.0 mm 0.00 in0.0 mm 0.00 in0.0 mm
12:02 AM 66.4°F19.1°C 46.2°F7.9°C 48% 6.4 mph N10.3 kmh N 11.4 mph18.3 kmh 30.12 in1020.0 mb 0.00 in0.0 mm 0.00 in0.0 mm 0.00 in0.0 mm